sensor_id;sensor_type;location;lat;lon;timestamp;P1;durP1;ratioP1;P2;durP2;ratioP2
6342;SDS011;3204;42.698;23.298;2022-08-19T00:01:38;7.78;;;7.07;;
6342;SDS011;3204;42.698;23.298;2022-08-19T00:04:06;6.80;;;6.05;;
6342;SDS011;3204;42.698;23.298;2022-08-19T00:06:37;6.97;;;6.50;;
6342;SDS011;3204;42.698;23.298;2022-08-19T00:09:05;11.43;;;6.35;;
6342;SDS011;3204;42.698;23.298;2022-08-19T00:11:33;8.32;;;7.13;;
6342;SDS011;3204;42.698;23.298;2022-08-19T00:14:01;7.82;;;6.60;;
6342;SDS011;3204;42.698;23.298;2022-08-19T00:16:27;7.55;;;6.88;;
6342;SDS011;3204;42.698;23.298;2022-08-19T00:18:53;7.47;;;6.90;;
6342;SDS011;3204;42.698;23.298;2022-08-19T00:21:20;7.43;;;6.70;;
6342;SDS011;3204;42.698;23.298;2022-08-19T00:23:46;8.00;;;7.35;;
6342;SDS011;3204;42.698;23.298;2022-08-19T00:26:12;7.57;;;6.97;;
6342;SDS011;3204;42.698;23.298;2022-08-19T00:28:37;7.25;;;6.85;;
6342;SDS011;3204;42.698;23.298;2022-08-19T00:31:03;7.68;;;6.93;;
6342;SDS011;3204;42.698;23.298;2022-08-19T00:33:31;8.00;;;7.20;;
6342;SDS011;3204;42.698;23.298;2022-08-19T00:35:58;8.10;;;7.60;;
6342;SDS011;3204;42.698;23.298;2022-08-19T00:38:24;7.63;;;7.10;;
6342;SDS011;3204;42.698;23.298;2022-08-19T00:40:50;8.88;;;7.43;;
6342;SDS011;3204;42.698;23.298;2022-08-19T00:43:18;8.43;;;7.35;;
6342;SDS011;3204;42.698;23.298;2022-08-19T00:45:46;8.10;;;7.45;;
6342;SDS011;3204;42.698;23.298;2022-08-19T00:48:12;8.93;;;7.30;;
6342;SDS011;3204;42.698;23.298;2022-08-19T00:50:39;8.50;;;7.82;;
6342;SDS011;3204;42.698;23.298;2022-08-19T00:53:08;8.07;;;7.40;;
6342;SDS011;3204;42.698;23.298;2022-08-19T00:55:35;8.88;;;7.85;;
6342;SDS011;3204;42.698;23.298;2022-08-19T00:58:05;7.78;;;7.20;;
6342;SDS011;3204;42.698;23.298;2022-08-19T01:00:33;8.10;;;7.28;;
6342;SDS011;3204;42.698;23.298;2022-08-19T01:03:03;7.70;;;6.93;;
6342;SDS011;3204;42.698;23.298;2022-08-19T01:05:31;9.05;;;8.27;;
6342;SDS011;3204;42.698;23.298;2022-08-19T01:07:59;7.85;;;7.05;;
6342;SDS011;3204;42.698;23.298;2022-08-19T01:10:27;8.25;;;7.60;;
6342;SDS011;3204;42.698;23.298;2022-08-19T01:12:57;12.38;;;7.93;;
6342;SDS011;3204;42.698;23.298;2022-08-19T01:15:29;8.43;;;7.78;;
6342;SDS011;3204;42.698;23.298;2022-08-19T01:17:59;7.80;;;7.35;;
6342;SDS011;3204;42.698;23.298;2022-08-19T01:20:29;8.25;;;7.60;;
6342;SDS011;3204;42.698;23.298;2022-08-19T01:22:56;7.97;;;7.22;;
6342;SDS011;3204;42.698;23.298;2022-08-19T01:25:24;9.25;;;7.55;;
6342;SDS011;3204;42.698;23.298;2022-08-19T01:27:54;7.85;;;7.18;;
6342;SDS011;3204;42.698;23.298;2022-08-19T01:30:23;7.65;;;7.13;;
6342;SDS011;3204;42.698;23.298;2022-08-19T01:32:55;7.18;;;6.68;;
6342;SDS011;3204;42.698;23.298;2022-08-19T01:35:22;7.63;;;6.85;;
6342;SDS011;3204;42.698;23.298;2022-08-19T01:37:51;7.10;;;6.57;;
6342;SDS011;3204;42.698;23.298;2022-08-19T01:40:20;8.27;;;6.65;;
6342;SDS011;3204;42.698;23.298;2022-08-19T01:42:48;9.27;;;7.63;;
6342;SDS011;3204;42.698;23.298;2022-08-19T01:45:15;13.02;;;7.22;;
6342;SDS011;3204;42.698;23.298;2022-08-19T01:47:40;9.73;;;7.90;;
6342;SDS011;3204;42.698;23.298;2022-08-19T01:50:07;9.20;;;7.72;;
6342;SDS011;3204;42.698;23.298;2022-08-19T01:52:36;11.55;;;7.65;;
6342;SDS011;3204;42.698;23.298;2022-08-19T01:55:03;8.38;;;7.53;;
6342;SDS011;3204;42.698;23.298;2022-08-19T01:57:30;8.45;;;7.18;;
6342;SDS011;3204;42.698;23.298;2022-08-19T01:59:56;8.10;;;7.40;;
6342;SDS011;3204;42.698;23.298;2022-08-19T02:02:21;9.68;;;7.35;;
6342;SDS011;3204;42.698;23.298;2022-08-19T02:04:47;11.43;;;7.60;;
6342;SDS011;3204;42.698;23.298;2022-08-19T02:07:12;10.77;;;7.38;;
6342;SDS011;3204;42.698;23.298;2022-08-19T02:09:38;16.35;;;7.97;;
6342;SDS011;3204;42.698;23.298;2022-08-19T02:12:04;14.05;;;7.82;;
6342;SDS011;3204;42.698;23.298;2022-08-19T02:14:33;11.80;;;7.97;;
6342;SDS011;3204;42.698;23.298;2022-08-19T02:16:59;13.65;;;8.02;;
6342;SDS011;3204;42.698;23.298;2022-08-19T02:19:26;8.60;;;7.70;;
6342;SDS011;3204;42.698;23.298;2022-08-19T02:21:51;9.68;;;7.78;;
6342;SDS011;3204;42.698;23.298;2022-08-19T02:24:17;11.25;;;7.63;;
6342;SDS011;3204;42.698;23.298;2022-08-19T02:26:43;8.20;;;7.38;;
6342;SDS011;3204;42.698;23.298;2022-08-19T02:29:08;8.02;;;7.22;;
6342;SDS011;3204;42.698;23.298;2022-08-19T02:31:33;8.90;;;7.95;;
6342;SDS011;3204;42.698;23.298;2022-08-19T02:33:59;7.85;;;7.38;;
6342;SDS011;3204;42.698;23.298;2022-08-19T02:36:25;8.00;;;7.50;;
6342;SDS011;3204;42.698;23.298;2022-08-19T02:38:51;8.30;;;7.80;;
6342;SDS011;3204;42.698;23.298;2022-08-19T02:41:18;7.70;;;7.15;;
6342;SDS011;3204;42.698;23.298;2022-08-19T02:43:47;8.05;;;7.45;;
6342;SDS011;3204;42.698;23.298;2022-08-19T02:46:24;8.68;;;8.05;;
6342;SDS011;3204;42.698;23.298;2022-08-19T02:48:53;11.30;;;8.18;;
6342;SDS011;3204;42.698;23.298;2022-08-19T02:51:23;10.70;;;8.10;;
6342;SDS011;3204;42.698;23.298;2022-08-19T02:53:50;9.02;;;8.32;;
6342;SDS011;3204;42.698;23.298;2022-08-19T02:56:16;8.38;;;7.63;;
6342;SDS011;3204;42.698;23.298;2022-08-19T02:58:42;9.65;;;8.85;;
6342;SDS011;3204;42.698;23.298;2022-08-19T03:01:08;12.63;;;8.82;;
6342;SDS011;3204;42.698;23.298;2022-08-19T03:03:35;9.20;;;8.48;;
6342;SDS011;3204;42.698;23.298;2022-08-19T03:06:04;9.50;;;8.63;;
6342;SDS011;3204;42.698;23.298;2022-08-19T03:08:31;9.63;;;8.55;;
6342;SDS011;3204;42.698;23.298;2022-08-19T03:10:57;9.57;;;9.00;;
6342;SDS011;3204;42.698;23.298;2022-08-19T03:13:22;9.25;;;8.65;;
6342;SDS011;3204;42.698;23.298;2022-08-19T03:15:49;9.73;;;8.50;;
6342;SDS011;3204;42.698;23.298;2022-08-19T03:18:14;9.43;;;8.57;;
6342;SDS011;3204;42.698;23.298;2022-08-19T03:20:43;14.57;;;9.35;;
6342;SDS011;3204;42.698;23.298;2022-08-19T03:23:10;18.92;;;9.43;;
6342;SDS011;3204;42.698;23.298;2022-08-19T03:25:41;13.15;;;9.52;;
6342;SDS011;3204;42.698;23.298;2022-08-19T03:28:09;25.23;;;9.65;;
6342;SDS011;3204;42.698;23.298;2022-08-19T03:30:37;20.25;;;9.63;;
6342;SDS011;3204;42.698;23.298;2022-08-19T03:33:04;13.25;;;9.75;;
6342;SDS011;3204;42.698;23.298;2022-08-19T03:35:30;18.65;;;9.65;;
6342;SDS011;3204;42.698;23.298;2022-08-19T03:37:55;19.30;;;9.88;;
6342;SDS011;3204;42.698;23.298;2022-08-19T03:40:22;18.75;;;9.57;;
6342;SDS011;3204;42.698;23.298;2022-08-19T03:42:48;16.05;;;9.18;;
6342;SDS011;3204;42.698;23.298;2022-08-19T03:45:14;12.38;;;10.55;;
6342;SDS011;3204;42.698;23.298;2022-08-19T03:47:40;16.15;;;9.80;;
6342;SDS011;3204;42.698;23.298;2022-08-19T03:50:06;10.30;;;9.45;;
6342;SDS011;3204;42.698;23.298;2022-08-19T03:52:33;10.80;;;9.38;;
6342;SDS011;3204;42.698;23.298;2022-08-19T03:55:00;11.25;;;9.18;;
6342;SDS011;3204;42.698;23.298;2022-08-19T03:57:25;11.65;;;9.38;;
6342;SDS011;3204;42.698;23.298;2022-08-19T03:59:51;10.50;;;9.52;;
6342;SDS011;3204;42.698;23.298;2022-08-19T04:02:16;9.55;;;8.68;;
6342;SDS011;3204;42.698;23.298;2022-08-19T04:04:43;10.57;;;9.48;;
6342;SDS011;3204;42.698;23.298;2022-08-19T04:07:09;12.15;;;9.07;;
6342;SDS011;3204;42.698;23.298;2022-08-19T04:09:35;10.82;;;9.80;;
6342;SDS011;3204;42.698;23.298;2022-08-19T04:12:02;11.73;;;9.75;;
6342;SDS011;3204;42.698;23.298;2022-08-19T04:14:31;10.38;;;9.40;;
6342;SDS011;3204;42.698;23.298;2022-08-19T04:16:57;12.60;;;9.80;;
6342;SDS011;3204;42.698;23.298;2022-08-19T04:19:24;15.32;;;10.48;;
6342;SDS011;3204;42.698;23.298;2022-08-19T04:21:51;13.30;;;10.98;;
6342;SDS011;3204;42.698;23.298;2022-08-19T04:24:19;14.98;;;10.80;;
6342;SDS011;3204;42.698;23.298;2022-08-19T04:26:45;15.70;;;10.68;;
6342;SDS011;3204;42.698;23.298;2022-08-19T04:29:19;13.35;;;9.80;;
6342;SDS011;3204;42.698;23.298;2022-08-19T04:31:46;15.40;;;10.02;;
6342;SDS011;3204;42.698;23.298;2022-08-19T04:34:14;11.60;;;10.02;;
6342;SDS011;3204;42.698;23.298;2022-08-19T04:36:41;11.02;;;8.77;;
6342;SDS011;3204;42.698;23.298;2022-08-19T04:39:11;10.20;;;9.43;;
6342;SDS011;3204;42.698;23.298;2022-08-19T04:41:39;10.38;;;9.20;;
6342;SDS011;3204;42.698;23.298;2022-08-19T04:44:23;16.75;;;10.07;;
6342;SDS011;3204;42.698;23.298;2022-08-19T04:46:49;15.75;;;10.60;;
6342;SDS011;3204;42.698;23.298;2022-08-19T04:49:16;12.73;;;11.32;;
6342;SDS011;3204;42.698;23.298;2022-08-19T04:51:44;20.50;;;10.55;;
6342;SDS011;3204;42.698;23.298;2022-08-19T04:54:10;14.15;;;10.00;;
6342;SDS011;3204;42.698;23.298;2022-08-19T04:56:38;14.98;;;11.02;;
6342;SDS011;3204;42.698;23.298;2022-08-19T04:59:04;13.52;;;10.98;;
6342;SDS011;3204;42.698;23.298;2022-08-19T05:01:30;13.32;;;11.98;;
6342;SDS011;3204;42.698;23.298;2022-08-19T05:04:01;11.43;;;10.25;;
6342;SDS011;3204;42.698;23.298;2022-08-19T05:06:29;19.17;;;9.93;;
6342;SDS011;3204;42.698;23.298;2022-08-19T05:08:58;13.35;;;11.75;;
6342;SDS011;3204;42.698;23.298;2022-08-19T05:11:26;13.57;;;10.77;;
6342;SDS011;3204;42.698;23.298;2022-08-19T05:14:00;13.40;;;12.18;;
6342;SDS011;3204;42.698;23.298;2022-08-19T05:16:26;14.68;;;11.35;;
6342;SDS011;3204;42.698;23.298;2022-08-19T05:18:52;17.15;;;12.38;;
6342;SDS011;3204;42.698;23.298;2022-08-19T05:21:38;14.65;;;11.30;;
6342;SDS011;3204;42.698;23.298;2022-08-19T05:24:23;14.88;;;10.93;;
6342;SDS011;3204;42.698;23.298;2022-08-19T05:26:50;16.10;;;12.30;;
6342;SDS011;3204;42.698;23.298;2022-08-19T05:29:18;15.48;;;9.02;;
6342;SDS011;3204;42.698;23.298;2022-08-19T05:31:45;10.45;;;9.43;;
6342;SDS011;3204;42.698;23.298;2022-08-19T05:34:14;14.63;;;11.13;;
6342;SDS011;3204;42.698;23.298;2022-08-19T05:36:40;14.32;;;11.48;;
6342;SDS011;3204;42.698;23.298;2022-08-19T05:39:10;11.80;;;10.00;;
6342;SDS011;3204;42.698;23.298;2022-08-19T05:41:44;10.02;;;9.32;;
6342;SDS011;3204;42.698;23.298;2022-08-19T05:44:11;11.10;;;10.00;;
6342;SDS011;3204;42.698;23.298;2022-08-19T05:46:37;12.45;;;11.27;;
6342;SDS011;3204;42.698;23.298;2022-08-19T05:49:06;11.07;;;9.98;;
6342;SDS011;3204;42.698;23.298;2022-08-19T05:51:33;12.40;;;11.30;;
6342;SDS011;3204;42.698;23.298;2022-08-19T05:54:02;13.23;;;11.48;;
6342;SDS011;3204;42.698;23.298;2022-08-19T05:56:29;16.63;;;10.27;;
6342;SDS011;3204;42.698;23.298;2022-08-19T05:58:55;14.95;;;11.27;;
6342;SDS011;3204;42.698;23.298;2022-08-19T06:01:21;13.15;;;11.52;;
6342;SDS011;3204;42.698;23.298;2022-08-19T06:03:46;11.95;;;10.38;;
6342;SDS011;3204;42.698;23.298;2022-08-19T06:06:13;11.93;;;10.80;;
6342;SDS011;3204;42.698;23.298;2022-08-19T06:08:41;12.30;;;10.80;;
6342;SDS011;3204;42.698;23.298;2022-08-19T06:11:28;14.80;;;10.93;;
6342;SDS011;3204;42.698;23.298;2022-08-19T06:13:57;15.02;;;10.68;;
6342;SDS011;3204;42.698;23.298;2022-08-19T06:16:27;11.68;;;10.70;;
6342;SDS011;3204;42.698;23.298;2022-08-19T06:18:53;13.48;;;11.95;;
6342;SDS011;3204;42.698;23.298;2022-08-19T06:21:20;12.60;;;11.40;;
6342;SDS011;3204;42.698;23.298;2022-08-19T06:23:47;12.70;;;11.15;;
6342;SDS011;3204;42.698;23.298;2022-08-19T06:26:13;11.95;;;10.77;;
6342;SDS011;3204;42.698;23.298;2022-08-19T06:28:40;13.68;;;11.32;;
6342;SDS011;3204;42.698;23.298;2022-08-19T06:31:11;14.60;;;11.27;;
6342;SDS011;3204;42.698;23.298;2022-08-19T06:33:41;12.45;;;11.20;;
6342;SDS011;3204;42.698;23.298;2022-08-19T06:36:07;12.93;;;11.80;;
6342;SDS011;3204;42.698;23.298;2022-08-19T06:38:40;13.57;;;11.23;;
6342;SDS011;3204;42.698;23.298;2022-08-19T06:41:06;24.33;;;10.93;;
6342;SDS011;3204;42.698;23.298;2022-08-19T06:43:31;18.38;;;10.15;;
6342;SDS011;3204;42.698;23.298;2022-08-19T06:45:56;13.27;;;10.80;;
6342;SDS011;3204;42.698;23.298;2022-08-19T06:48:23;11.95;;;10.82;;
6342;SDS011;3204;42.698;23.298;2022-08-19T06:50:49;10.77;;;9.75;;
6342;SDS011;3204;42.698;23.298;2022-08-19T06:53:16;11.90;;;10.75;;
6342;SDS011;3204;42.698;23.298;2022-08-19T06:55:44;11.40;;;10.32;;
6342;SDS011;3204;42.698;23.298;2022-08-19T06:58:10;12.63;;;10.40;;
6342;SDS011;3204;42.698;23.298;2022-08-19T07:00:35;13.77;;;10.52;;
6342;SDS011;3204;42.698;23.298;2022-08-19T07:03:02;17.60;;;10.18;;
6342;SDS011;3204;42.698;23.298;2022-08-19T07:05:27;17.08;;;11.30;;
6342;SDS011;3204;42.698;23.298;2022-08-19T07:07:53;12.57;;;11.02;;
6342;SDS011;3204;42.698;23.298;2022-08-19T07:10:18;11.35;;;9.85;;
6342;SDS011;3204;42.698;23.298;2022-08-19T07:12:44;12.80;;;10.27;;
6342;SDS011;3204;42.698;23.298;2022-08-19T07:15:10;11.27;;;10.15;;
6342;SDS011;3204;42.698;23.298;2022-08-19T07:17:36;10.57;;;9.52;;
6342;SDS011;3204;42.698;23.298;2022-08-19T07:20:04;10.70;;;9.68;;
6342;SDS011;3204;42.698;23.298;2022-08-19T07:22:31;9.75;;;8.77;;
6342;SDS011;3204;42.698;23.298;2022-08-19T07:24:58;16.60;;;10.38;;
6342;SDS011;3204;42.698;23.298;2022-08-19T07:27:24;14.05;;;10.07;;
6342;SDS011;3204;42.698;23.298;2022-08-19T07:29:49;12.15;;;10.35;;
6342;SDS011;3204;42.698;23.298;2022-08-19T07:32:15;11.27;;;10.18;;
6342;SDS011;3204;42.698;23.298;2022-08-19T07:34:41;13.00;;;9.23;;
6342;SDS011;3204;42.698;23.298;2022-08-19T07:37:06;15.50;;;10.05;;
6342;SDS011;3204;42.698;23.298;2022-08-19T07:39:33;10.63;;;9.30;;
6342;SDS011;3204;42.698;23.298;2022-08-19T07:42:01;10.57;;;8.93;;
6342;SDS011;3204;42.698;23.298;2022-08-19T07:44:31;9.30;;;8.48;;
6342;SDS011;3204;42.698;23.298;2022-08-19T07:46:56;11.80;;;8.60;;
6342;SDS011;3204;42.698;23.298;2022-08-19T07:49:23;10.60;;;9.52;;
6342;SDS011;3204;42.698;23.298;2022-08-19T07:51:50;9.50;;;8.95;;
6342;SDS011;3204;42.698;23.298;2022-08-19T07:54:21;9.98;;;9.02;;
6342;SDS011;3204;42.698;23.298;2022-08-19T07:56:47;12.48;;;9.25;;
6342;SDS011;3204;42.698;23.298;2022-08-19T07:59:15;9.38;;;8.68;;
6342;SDS011;3204;42.698;23.298;2022-08-19T08:01:42;10.02;;;8.13;;
6342;SDS011;3204;42.698;23.298;2022-08-19T08:04:09;9.85;;;8.82;;
6342;SDS011;3204;42.698;23.298;2022-08-19T08:06:54;12.25;;;8.27;;
6342;SDS011;3204;42.698;23.298;2022-08-19T08:09:40;8.50;;;7.72;;
6342;SDS011;3204;42.698;23.298;2022-08-19T08:14:37;13.93;;;8.15;;
6342;SDS011;3204;42.698;23.298;2022-08-19T08:17:11;9.98;;;9.02;;
6342;SDS011;3204;42.698;23.298;2022-08-19T08:19:37;13.88;;;6.90;;
6342;SDS011;3204;42.698;23.298;2022-08-19T08:22:06;10.48;;;7.95;;
6342;SDS011;3204;42.698;23.298;2022-08-19T08:24:32;7.22;;;6.63;;
6342;SDS011;3204;42.698;23.298;2022-08-19T08:26:59;9.32;;;7.90;;
6342;SDS011;3204;42.698;23.298;2022-08-19T08:29:26;13.25;;;7.20;;
6342;SDS011;3204;42.698;23.298;2022-08-19T08:31:53;9.20;;;7.40;;
6342;SDS011;3204;42.698;23.298;2022-08-19T08:34:19;7.90;;;7.35;;
6342;SDS011;3204;42.698;23.298;2022-08-19T08:36:45;8.23;;;7.38;;
6342;SDS011;3204;42.698;23.298;2022-08-19T08:39:15;9.48;;;6.65;;
6342;SDS011;3204;42.698;23.298;2022-08-19T08:44:20;7.13;;;6.63;;
6342;SDS011;3204;42.698;23.298;2022-08-19T08:46:53;9.50;;;6.68;;
6342;SDS011;3204;42.698;23.298;2022-08-19T08:49:25;7.45;;;6.70;;
6342;SDS011;3204;42.698;23.298;2022-08-19T08:54:41;11.82;;;6.70;;
6342;SDS011;3204;42.698;23.298;2022-08-19T08:57:13;7.57;;;6.22;;
6342;SDS011;3204;42.698;23.298;2022-08-19T08:59:43;6.20;;;5.70;;
6342;SDS011;3204;42.698;23.298;2022-08-19T09:02:16;8.00;;;6.10;;
6342;SDS011;3204;42.698;23.298;2022-08-19T09:04:42;6.45;;;5.93;;
6342;SDS011;3204;42.698;23.298;2022-08-19T09:07:14;7.53;;;5.22;;
6342;SDS011;3204;42.698;23.298;2022-08-19T09:09:43;6.72;;;6.22;;
6342;SDS011;3204;42.698;23.298;2022-08-19T09:14:53;6.80;;;6.07;;
6342;SDS011;3204;42.698;23.298;2022-08-19T09:17:23;5.65;;;5.18;;
6342;SDS011;3204;42.698;23.298;2022-08-19T09:22:59;5.25;;;4.85;;
6342;SDS011;3204;42.698;23.298;2022-08-19T09:25:25;5.45;;;4.93;;
6342;SDS011;3204;42.698;23.298;2022-08-19T09:27:51;5.50;;;5.10;;
6342;SDS011;3204;42.698;23.298;2022-08-19T09:30:25;4.93;;;4.63;;
6342;SDS011;3204;42.698;23.298;2022-08-19T09:32:52;4.30;;;4.10;;
6342;SDS011;3204;42.698;23.298;2022-08-19T09:35:23;4.28;;;3.65;;
6342;SDS011;3204;42.698;23.298;2022-08-19T09:37:51;4.22;;;3.88;;
6342;SDS011;3204;42.698;23.298;2022-08-19T09:40:18;4.25;;;3.97;;
6342;SDS011;3204;42.698;23.298;2022-08-19T09:42:44;4.18;;;3.30;;
6342;SDS011;3204;42.698;23.298;2022-08-19T09:45:12;4.35;;;3.90;;
6342;SDS011;3204;42.698;23.298;2022-08-19T09:47:38;4.25;;;3.90;;
6342;SDS011;3204;42.698;23.298;2022-08-19T09:50:05;6.00;;;3.90;;
6342;SDS011;3204;42.698;23.298;2022-08-19T09:52:32;4.20;;;3.90;;
6342;SDS011;3204;42.698;23.298;2022-08-19T09:54:59;4.43;;;4.20;;
6342;SDS011;3204;42.698;23.298;2022-08-19T09:57:25;4.50;;;4.10;;
6342;SDS011;3204;42.698;23.298;2022-08-19T09:59:50;4.22;;;3.92;;
6342;SDS011;3204;42.698;23.298;2022-08-19T10:02:16;3.90;;;3.70;;
6342;SDS011;3204;42.698;23.298;2022-08-19T10:04:43;11.00;;;3.70;;
6342;SDS011;3204;42.698;23.298;2022-08-19T10:07:28;5.00;;;3.72;;
6342;SDS011;3204;42.698;23.298;2022-08-19T10:09:54;4.25;;;3.85;;
6342;SDS011;3204;42.698;23.298;2022-08-19T10:12:20;4.90;;;4.20;;
6342;SDS011;3204;42.698;23.298;2022-08-19T10:14:46;3.78;;;3.58;;
6342;SDS011;3204;42.698;23.298;2022-08-19T10:17:11;4.30;;;4.10;;
6342;SDS011;3204;42.698;23.298;2022-08-19T10:19:36;4.50;;;4.20;;
6342;SDS011;3204;42.698;23.298;2022-08-19T10:22:03;4.32;;;3.95;;
6342;SDS011;3204;42.698;23.298;2022-08-19T10:24:30;4.57;;;4.20;;
6342;SDS011;3204;42.698;23.298;2022-08-19T10:26:56;5.05;;;4.07;;
6342;SDS011;3204;42.698;23.298;2022-08-19T10:29:22;5.25;;;4.65;;
6342;SDS011;3204;42.698;23.298;2022-08-19T10:31:48;4.85;;;4.65;;
6342;SDS011;3204;42.698;23.298;2022-08-19T10:34:13;4.93;;;4.43;;
6342;SDS011;3204;42.698;23.298;2022-08-19T10:36:39;4.53;;;4.05;;
6342;SDS011;3204;42.698;23.298;2022-08-19T10:39:09;5.13;;;4.85;;
6342;SDS011;3204;42.698;23.298;2022-08-19T10:41:37;4.72;;;4.35;;
6342;SDS011;3204;42.698;23.298;2022-08-19T10:44:05;4.85;;;4.55;;
6342;SDS011;3204;42.698;23.298;2022-08-19T10:46:33;4.60;;;4.40;;
6342;SDS011;3204;42.698;23.298;2022-08-19T10:49:02;5.63;;;4.70;;
6342;SDS011;3204;42.698;23.298;2022-08-19T10:51:30;4.63;;;4.32;;
6342;SDS011;3204;42.698;23.298;2022-08-19T10:54:14;5.00;;;4.47;;
6342;SDS011;3204;42.698;23.298;2022-08-19T10:56:40;4.75;;;4.45;;
6342;SDS011;3204;42.698;23.298;2022-08-19T10:59:28;5.18;;;4.78;;
6342;SDS011;3204;42.698;23.298;2022-08-19T11:01:58;5.18;;;4.78;;
6342;SDS011;3204;42.698;23.298;2022-08-19T11:04:25;4.97;;;4.60;;
6342;SDS011;3204;42.698;23.298;2022-08-19T11:06:51;5.25;;;5.00;;
6342;SDS011;3204;42.698;23.298;2022-08-19T11:09:19;5.13;;;4.72;;
6342;SDS011;3204;42.698;23.298;2022-08-19T11:11:49;4.82;;;4.63;;
6342;SDS011;3204;42.698;23.298;2022-08-19T11:14:16;4.68;;;4.47;;
6342;SDS011;3204;42.698;23.298;2022-08-19T11:16:46;5.10;;;4.90;;
6342;SDS011;3204;42.698;23.298;2022-08-19T11:19:13;4.88;;;4.38;;
6342;SDS011;3204;42.698;23.298;2022-08-19T11:21:42;4.70;;;4.43;;
6342;SDS011;3204;42.698;23.298;2022-08-19T11:24:13;5.10;;;4.80;;
6342;SDS011;3204;42.698;23.298;2022-08-19T11:26:41;4.68;;;4.22;;
6342;SDS011;3204;42.698;23.298;2022-08-19T11:29:08;5.97;;;4.90;;
6342;SDS011;3204;42.698;23.298;2022-08-19T11:31:42;5.32;;;4.43;;
6342;SDS011;3204;42.698;23.298;2022-08-19T11:34:10;4.93;;;4.50;;
6342;SDS011;3204;42.698;23.298;2022-08-19T11:36:38;6.15;;;4.70;;
6342;SDS011;3204;42.698;23.298;2022-08-19T11:39:06;5.35;;;4.82;;
6342;SDS011;3204;42.698;23.298;2022-08-19T11:41:32;12.55;;;11.77;;
6342;SDS011;3204;42.698;23.298;2022-08-19T11:43:59;5.10;;;4.70;;
6342;SDS011;3204;42.698;23.298;2022-08-19T11:46:25;5.40;;;4.82;;
6342;SDS011;3204;42.698;23.298;2022-08-19T11:48:54;10.07;;;5.00;;
6342;SDS011;3204;42.698;23.298;2022-08-19T11:51:22;6.60;;;4.60;;
6342;SDS011;3204;42.698;23.298;2022-08-19T11:53:49;4.90;;;4.60;;
6342;SDS011;3204;42.698;23.298;2022-08-19T11:56:16;5.10;;;4.70;;
6342;SDS011;3204;42.698;23.298;2022-08-19T11:58:43;5.10;;;4.80;;
6342;SDS011;3204;42.698;23.298;2022-08-19T12:01:09;5.43;;;5.03;;
6342;SDS011;3204;42.698;23.298;2022-08-19T12:03:37;5.78;;;4.60;;
6342;SDS011;3204;42.698;23.298;2022-08-19T12:06:07;4.50;;;4.20;;
6342;SDS011;3204;42.698;23.298;2022-08-19T12:08:38;5.05;;;4.63;;
6342;SDS011;3204;42.698;23.298;2022-08-19T12:11:05;4.90;;;4.60;;
6342;SDS011;3204;42.698;23.298;2022-08-19T12:13:33;5.05;;;4.75;;
6342;SDS011;3204;42.698;23.298;2022-08-19T12:15:59;5.15;;;4.72;;
6342;SDS011;3204;42.698;23.298;2022-08-19T12:18:25;6.43;;;4.53;;
6342;SDS011;3204;42.698;23.298;2022-08-19T12:20:52;6.13;;;4.50;;
6342;SDS011;3204;42.698;23.298;2022-08-19T12:23:19;5.60;;;5.10;;
6342;SDS011;3204;42.698;23.298;2022-08-19T12:25:46;4.82;;;4.53;;
6342;SDS011;3204;42.698;23.298;2022-08-19T12:28:19;5.20;;;4.78;;
6342;SDS011;3204;42.698;23.298;2022-08-19T12:30:46;4.97;;;4.57;;
6342;SDS011;3204;42.698;23.298;2022-08-19T12:33:13;4.43;;;3.97;;
6342;SDS011;3204;42.698;23.298;2022-08-19T12:35:43;4.20;;;3.90;;
6342;SDS011;3204;42.698;23.298;2022-08-19T12:38:10;7.25;;;4.28;;
6342;SDS011;3204;42.698;23.298;2022-08-19T12:40:36;6.93;;;4.68;;
6342;SDS011;3204;42.698;23.298;2022-08-19T12:43:02;5.75;;;5.13;;
6342;SDS011;3204;42.698;23.298;2022-08-19T12:45:28;5.07;;;4.60;;
6342;SDS011;3204;42.698;23.298;2022-08-19T12:47:53;5.05;;;4.50;;
6342;SDS011;3204;42.698;23.298;2022-08-19T12:50:19;6.28;;;4.30;;
6342;SDS011;3204;42.698;23.298;2022-08-19T12:52:46;5.25;;;4.78;;
6342;SDS011;3204;42.698;23.298;2022-08-19T12:55:13;4.78;;;4.57;;
6342;SDS011;3204;42.698;23.298;2022-08-19T12:57:39;5.45;;;5.13;;
6342;SDS011;3204;42.698;23.298;2022-08-19T13:00:07;5.15;;;4.75;;
6342;SDS011;3204;42.698;23.298;2022-08-19T13:02:39;5.53;;;5.22;;
6342;SDS011;3204;42.698;23.298;2022-08-19T13:05:07;4.95;;;4.55;;
6342;SDS011;3204;42.698;23.298;2022-08-19T13:07:35;7.53;;;5.18;;
6342;SDS011;3204;42.698;23.298;2022-08-19T13:10:03;5.32;;;5.03;;
6342;SDS011;3204;42.698;23.298;2022-08-19T13:12:33;5.03;;;4.68;;
6342;SDS011;3204;42.698;23.298;2022-08-19T13:14:59;5.78;;;5.38;;
6342;SDS011;3204;42.698;23.298;2022-08-19T13:17:25;5.45;;;5.05;;
6342;SDS011;3204;42.698;23.298;2022-08-19T13:19:51;7.55;;;5.13;;
6342;SDS011;3204;42.698;23.298;2022-08-19T13:22:17;5.80;;;4.88;;
6342;SDS011;3204;42.698;23.298;2022-08-19T13:24:43;6.50;;;5.25;;
6342;SDS011;3204;42.698;23.298;2022-08-19T13:27:08;4.85;;;4.50;;
6342;SDS011;3204;42.698;23.298;2022-08-19T13:29:34;10.55;;;4.97;;
6342;SDS011;3204;42.698;23.298;2022-08-19T13:32:18;5.57;;;4.95;;
6342;SDS011;3204;42.698;23.298;2022-08-19T13:35:03;5.20;;;4.85;;
6342;SDS011;3204;42.698;23.298;2022-08-19T13:37:29;4.95;;;4.65;;
6342;SDS011;3204;42.698;23.298;2022-08-19T13:40:07;6.15;;;4.78;;
6342;SDS011;3204;42.698;23.298;2022-08-19T13:42:41;5.45;;;5.15;;
6342;SDS011;3204;42.698;23.298;2022-08-19T13:45:07;11.95;;;5.13;;
6342;SDS011;3204;42.698;23.298;2022-08-19T13:47:34;6.65;;;5.00;;
6342;SDS011;3204;42.698;23.298;2022-08-19T13:50:02;5.82;;;5.07;;
6342;SDS011;3204;42.698;23.298;2022-08-19T13:52:28;5.55;;;5.15;;
6342;SDS011;3204;42.698;23.298;2022-08-19T13:54:54;7.60;;;7.20;;
6342;SDS011;3204;42.698;23.298;2022-08-19T13:57:20;5.13;;;4.72;;
6342;SDS011;3204;42.698;23.298;2022-08-19T13:59:45;5.18;;;4.75;;
6342;SDS011;3204;42.698;23.298;2022-08-19T14:02:11;5.28;;;4.85;;
6342;SDS011;3204;42.698;23.298;2022-08-19T14:04:37;5.22;;;4.95;;
6342;SDS011;3204;42.698;23.298;2022-08-19T14:07:02;5.57;;;5.22;;
6342;SDS011;3204;42.698;23.298;2022-08-19T14:09:29;5.05;;;4.75;;
6342;SDS011;3204;42.698;23.298;2022-08-19T14:11:54;5.63;;;5.32;;
6342;SDS011;3204;42.698;23.298;2022-08-19T14:14:20;5.55;;;5.05;;
6342;SDS011;3204;42.698;23.298;2022-08-19T14:16:46;5.43;;;5.03;;
6342;SDS011;3204;42.698;23.298;2022-08-19T14:19:12;7.32;;;4.80;;
6342;SDS011;3204;42.698;23.298;2022-08-19T14:21:37;5.18;;;4.65;;
6342;SDS011;3204;42.698;23.298;2022-08-19T14:24:04;5.30;;;4.90;;
6342;SDS011;3204;42.698;23.298;2022-08-19T14:26:29;6.40;;;5.10;;
6342;SDS011;3204;42.698;23.298;2022-08-19T14:28:55;6.38;;;5.88;;
6342;SDS011;3204;42.698;23.298;2022-08-19T14:31:22;5.60;;;5.30;;
6342;SDS011;3204;42.698;23.298;2022-08-19T14:33:49;5.90;;;5.40;;
6342;SDS011;3204;42.698;23.298;2022-08-19T14:36:15;6.22;;;5.35;;
6342;SDS011;3204;42.698;23.298;2022-08-19T14:38:42;5.65;;;5.10;;
6342;SDS011;3204;42.698;23.298;2022-08-19T14:41:09;5.63;;;5.20;;
6342;SDS011;3204;42.698;23.298;2022-08-19T14:43:38;6.30;;;5.80;;
6342;SDS011;3204;42.698;23.298;2022-08-19T14:46:07;5.38;;;5.05;;
6342;SDS011;3204;42.698;23.298;2022-08-19T14:48:33;6.22;;;5.72;;
6342;SDS011;3204;42.698;23.298;2022-08-19T14:50:58;6.07;;;5.57;;
6342;SDS011;3204;42.698;23.298;2022-08-19T14:53:24;6.15;;;5.55;;
6342;SDS011;3204;42.698;23.298;2022-08-19T14:55:50;5.60;;;5.28;;
6342;SDS011;3204;42.698;23.298;2022-08-19T14:58:16;10.75;;;5.13;;
6342;SDS011;3204;42.698;23.298;2022-08-19T15:00:41;6.07;;;5.40;;
6342;SDS011;3204;42.698;23.298;2022-08-19T15:03:07;7.78;;;6.13;;
6342;SDS011;3204;42.698;23.298;2022-08-19T15:05:32;5.50;;;5.20;;
6342;SDS011;3204;42.698;23.298;2022-08-19T15:08:02;5.70;;;5.20;;
6342;SDS011;3204;42.698;23.298;2022-08-19T15:10:28;5.68;;;5.25;;